Time;durP1;ratioP1;P1;durP2;ratioP2;P2;SDS_P1;SDS_P2;PMS_P1;PMS_P2;Temp;Humidity;BMP_temperature;BMP_pressure;BME280_temperature;BME280_humidity;BME280_pressure;Samples;Min_cycle;Max_cycle;Signal;HPM_P1;HPM_P2
2022/10/04 00:02:03;;;;;;;14.93;5.00;;;;;;;;;;4964327;28;20533;-90
2022/10/04 00:04:33;;;;;;;11.45;5.10;;;;;;;;;;4963254;28;20093;-89
2022/10/04 00:07:02;;;;;;;16.58;5.35;;;;;;;;;;4962969;28;20497;-90
2022/10/04 00:09:33;;;;;;;18.67;5.38;;;;;;;;;;4964324;28;20026;-89
2022/10/04 00:12:00;;;;;;;17.33;5.70;;;;;;;;;;4959014;28;20041;-89
2022/10/04 00:14:31;;;;;;;25.85;6.38;;;;;;;;;;4945179;28;20042;-89
2022/10/04 00:16:58;;;;;;;21.25;5.97;;;;;;;;;;4963217;28;20466;-90
2022/10/04 00:19:45;;;;;;;20.77;7.38;;;;;;;;;;4951588;28;20432;-90
2022/10/04 00:22:16;;;;;;;13.35;5.90;;;;;;;;;;4965288;28;21185;-89
2022/10/04 00:25:13;;;;;;;23.35;6.30;;;;;;;;;;4974255;28;20127;-89
2022/10/04 00:27:59;;;;;;;14.35;7.18;;;;;;;;;;4974760;28;20037;-90
2022/10/04 00:30:25;;;;;;;;;;;;;;;;;;4963344;28;20066;-90
2022/10/04 00:33:02;;;;;;;23.30;7.57;;;;;;;;;;4964568;28;19953;-91
2022/10/04 00:35:36;;;;;;;24.13;8.05;;;;;;;;;;4978935;28;20633;-90
2022/10/04 00:38:31;;;;;;;32.70;7.45;;;;;;;;;;4962887;28;20501;-89
2022/10/04 00:41:06;;;;;;;17.00;7.05;;;;;;;;;;4982867;28;20026;-89
2022/10/04 00:43:37;;;;;;;27.30;8.55;;;;;;;;;;4960829;28;20093;-90
2022/10/04 00:46:05;;;;;;;19.30;6.53;;;;;;;;;;4962327;28;20038;-90
2022/10/04 00:48:38;;;;;;;22.90;7.15;;;;;;;;;;4966562;28;20089;-90
2022/10/04 00:51:04;;;;;;;15.32;6.65;;;;;;;;;;4969834;28;20057;-90
2022/10/04 00:53:40;;;;;;;16.05;6.53;;;;;;;;;;4968003;28;20066;-90
2022/10/04 00:56:09;;;;;;;20.23;6.15;;;;;;;;;;4986764;28;20030;-89
2022/10/04 00:58:40;;;;;;;13.00;6.72;;;;;;;;;;4962208;28;20173;-90
2022/10/04 01:01:06;;;;;;;18.15;6.53;;;;;;;;;;4968200;28;20485;-92
2022/10/04 01:03:40;;;;;;;21.17;6.70;;;;;;;;;;4962806;28;20626;-90
2022/10/04 01:06:08;;;;;;;18.40;6.72;;;;;;;;;;4959816;28;20046;-91
2022/10/04 01:08:37;;;;;;;18.60;6.45;;;;;;;;;;4960324;28;20486;-90
2022/10/04 01:11:03;;;;;;;26.90;7.00;;;;;;;;;;4963607;28;20035;-90
2022/10/04 01:13:29;;;;;;;23.15;6.72;;;;;;;;;;4965652;28;20038;-90
2022/10/04 01:16:01;;;;;;;35.83;6.55;;;;;;;;;;4957124;28;21929;-90
2022/10/04 01:18:29;;;;;;;17.15;6.55;;;;;;;;;;4961453;28;20069;-89
2022/10/04 01:20:59;;;;;;;20.10;6.35;;;;;;;;;;4959844;28;20106;-90
2022/10/04 01:23:40;;;;;;;17.70;6.88;;;;;;;;;;4980673;28;20750;-90
2022/10/04 01:26:31;;;;;;;26.98;7.35;;;;;;;;;;4962023;28;20081;-89
2022/10/04 01:28:57;;;;;;;23.73;7.90;;;;;;;;;;4977041;28;20403;-90
2022/10/04 01:31:25;;;;;;;14.63;6.72;;;;;;;;;;4961047;28;20670;-90
2022/10/04 01:33:54;;;;;;;24.77;7.18;;;;;;;;;;4961473;28;20043;-89
2022/10/04 01:36:21;;;;;;;23.70;8.60;;;;;;;;;;4972956;28;20070;-90
2022/10/04 01:38:47;;;;;;;22.00;7.30;;;;;;;;;;4979259;28;20050;-90
2022/10/04 01:41:17;;;;;;;18.83;7.30;;;;;;;;;;4944059;28;20066;-90
2022/10/04 01:43:47;;;;;;;20.00;7.03;;;;;;;;;;4959472;28;20047;-89
2022/10/04 01:46:20;;;;;;;17.52;7.03;;;;;;;;;;4959801;28;20031;-90
2022/10/04 01:48:46;;;;;;;19.73;7.38;;;;;;;;;;4958168;28;20062;-90
2022/10/04 01:51:21;;;;;;;28.17;7.82;;;;;;;;;;4980453;28;20486;-90
2022/10/04 01:53:54;;;;;;;19.05;6.85;;;;;;;;;;4983775;28;20462;-90
2022/10/04 01:56:23;;;;;;;28.40;7.75;;;;;;;;;;4976660;28;20406;-90
2022/10/04 01:58:54;;;;;;;19.27;6.85;;;;;;;;;;4965179;28;20038;-89
2022/10/04 02:01:27;;;;;;;23.85;8.02;;;;;;;;;;4967845;28;20030;-89
2022/10/04 02:04:03;;;;;;;21.17;6.90;;;;;;;;;;4956923;28;20030;-91
2022/10/04 02:06:35;;;;;;;22.23;7.55;;;;;;;;;;4982513;28;20030;-91
2022/10/04 02:09:06;;;;;;;16.55;7.22;;;;;;;;;;4982941;28;20066;-90
2022/10/04 02:11:32;;;;;;;18.55;7.93;;;;;;;;;;4962061;28;20113;-90
2022/10/04 02:14:00;;;;;;;29.50;8.82;;;;;;;;;;4967309;28;20240;-90
2022/10/04 02:16:26;;;;;;;31.75;8.57;;;;;;;;;;4962217;28;20133;-90
2022/10/04 02:18:53;;;;;;;15.32;6.85;;;;;;;;;;4964419;28;20119;-90
2022/10/04 02:21:20;;;;;;;22.13;8.25;;;;;;;;;;4965490;28;20038;-89
2022/10/04 02:23:46;;;;;;;23.52;8.18;;;;;;;;;;4952480;28;22439;-89
2022/10/04 02:26:13;;;;;;;19.83;7.95;;;;;;;;;;4965772;28;20041;-89
2022/10/04 02:28:39;;;;;;;32.10;8.15;;;;;;;;;;4984392;28;20510;-89
2022/10/04 02:33:52;;;;;;;22.75;8.30;;;;;;;;;;4965661;28;20096;-89
2022/10/04 02:36:19;;;;;;;23.52;7.72;;;;;;;;;;4957982;28;20153;-89
2022/10/04 02:39:00;;;;;;;29.27;7.95;;;;;;;;;;4970253;28;20049;-89
2022/10/04 02:41:44;;;;;;;16.65;7.05;;;;;;;;;;4964776;28;20066;-89
2022/10/04 02:44:20;;;;;;;19.42;7.72;;;;;;;;;;4976545;28;20440;-89
2022/10/04 02:46:46;;;;;;;;;;;;;;;;;;4978355;28;20061;-90
2022/10/04 02:49:26;;;;;;;24.52;7.50;;;;;;;;;;4964283;28;19945;-90
2022/10/04 02:51:57;;;;;;;16.05;7.13;;;;;;;;;;4983420;28;20026;-89
2022/10/04 02:54:26;;;;;;;16.77;6.90;;;;;;;;;;4983889;28;20026;-89
2022/10/04 02:56:53;;;;;;;22.75;7.07;;;;;;;;;;4964716;28;20038;-89
2022/10/04 02:59:20;;;;;;;20.17;7.75;;;;;;;;;;4945908;28;20082;-89
2022/10/04 03:01:57;;;;;;;19.17;7.43;;;;;;;;;;4966449;28;20037;-88
2022/10/04 03:04:27;;;;;;;19.85;7.00;;;;;;;;;;4960692;28;20702;-89
2022/10/04 03:06:54;;;;;;;23.13;7.75;;;;;;;;;;4980012;28;20493;-89
2022/10/04 03:09:22;;;;;;;31.90;8.02;;;;;;;;;;4980521;28;20121;-89
2022/10/04 03:11:49;;;;;;;23.70;8.80;;;;;;;;;;4965235;28;20346;-90
2022/10/04 03:14:19;;;;;;;18.42;7.82;;;;;;;;;;4980505;28;20035;-89
2022/10/04 03:16:47;;;;;;;18.58;7.63;;;;;;;;;;4963058;28;20038;-89
2022/10/04 03:19:14;;;;;;;21.50;7.78;;;;;;;;;;4963931;28;20116;-88
2022/10/04 03:21:42;;;;;;;29.42;8.10;;;;;;;;;;4979372;28;20466;-89
2022/10/04 03:24:09;;;;;;;25.92;8.13;;;;;;;;;;4962694;28;20540;-89
2022/10/04 03:26:39;;;;;;;20.95;7.57;;;;;;;;;;4980100;28;20501;-89
2022/10/04 03:29:09;;;;;;;21.80;7.68;;;;;;;;;;4965314;28;20043;-89
2022/10/04 03:31:38;;;;;;;17.65;7.78;;;;;;;;;;4962159;28;20041;-88
2022/10/04 03:34:04;;;;;;;19.40;9.00;;;;;;;;;;4963855;28;20030;-89
2022/10/04 03:36:30;;;;;;;24.27;8.82;;;;;;;;;;4962617;28;20047;-89
2022/10/04 03:38:57;;;;;;;24.67;8.93;;;;;;;;;;4963914;28;20141;-89
2022/10/04 03:41:24;;;;;;;21.45;7.90;;;;;;;;;;4931574;28;20340;-89
2022/10/04 03:43:51;;;;;;;17.08;7.28;;;;;;;;;;4928066;28;20057;-89
2022/10/04 03:46:18;;;;;;;25.38;8.40;;;;;;;;;;4961209;28;20062;-90
2022/10/04 03:48:46;;;;;;;20.48;8.68;;;;;;;;;;4939571;28;20043;-89
2022/10/04 03:51:20;;;;;;;20.45;8.18;;;;;;;;;;4936703;28;20031;-90
2022/10/04 03:53:48;;;;;;;22.27;8.18;;;;;;;;;;4942969;28;20415;-90
2022/10/04 03:56:26;;;;;;;28.80;8.07;;;;;;;;;;4944276;28;21418;-89
2022/10/04 03:58:53;;;;;;;20.27;7.55;;;;;;;;;;4942854;28;20041;-89
2022/10/04 04:01:37;;;;;;;24.38;8.18;;;;;;;;;;4960741;28;20051;-89
2022/10/04 04:04:14;;;;;;;27.88;8.88;;;;;;;;;;4944111;28;20287;-90
2022/10/04 04:06:53;;;;;;;27.05;8.95;;;;;;;;;;4945236;28;20030;-89
2022/10/04 04:09:23;;;;;;;28.08;8.45;;;;;;;;;;4942301;28;20030;-89
2022/10/04 04:11:50;;;;;;;31.55;8.45;;;;;;;;;;4949336;28;20275;-89
2022/10/04 04:14:23;;;;;;;26.65;8.20;;;;;;;;;;4929349;28;20510;-89
2022/10/04 04:16:50;;;;;;;24.30;7.07;;;;;;;;;;4952051;28;20061;-89
2022/10/04 04:19:18;;;;;;;24.92;8.15;;;;;;;;;;4935966;28;20035;-89
2022/10/04 04:21:45;;;;;;;22.52;7.60;;;;;;;;;;4940713;28;20368;-89
2022/10/04 04:24:21;;;;;;;29.15;7.95;;;;;;;;;;4942115;28;20113;-89
2022/10/04 04:26:51;;;;;;;21.35;8.10;;;;;;;;;;4946596;28;20034;-90
2022/10/04 04:29:21;;;;;;;24.25;9.75;;;;;;;;;;4945989;28;20027;-89
2022/10/04 04:31:50;;;;;;;20.05;7.93;;;;;;;;;;4942378;28;20027;-89
2022/10/04 04:34:16;;;;;;;15.48;6.90;;;;;;;;;;4943382;28;20039;-89
2022/10/04 04:36:42;;;;;;;20.02;8.77;;;;;;;;;;4949743;28;20023;-88
2022/10/04 04:39:39;;;;;;;20.33;7.28;;;;;;;;;;4942509;28;20053;-89
2022/10/04 04:42:06;;;;;;;;;;;;;;;;;;4962876;28;20022;-88
2022/10/04 04:44:32;;;;;;;16.90;7.47;;;;;;;;;;4960412;28;20435;-88
2022/10/04 04:46:59;;;;;;;28.38;8.55;;;;;;;;;;4968385;28;20022;-89
2022/10/04 04:49:27;;;;;;;17.77;7.45;;;;;;;;;;4948410;28;20045;-89
2022/10/04 04:51:53;;;;;;;16.27;8.10;;;;;;;;;;4966477;28;20026;-89
2022/10/04 04:54:22;;;;;;;25.73;9.25;;;;;;;;;;4984276;28;20129;-89
2022/10/04 04:56:50;;;;;;;25.10;8.85;;;;;;;;;;4966982;28;20134;-88
2022/10/04 04:59:16;;;;;;;22.77;8.52;;;;;;;;;;4958923;28;20607;-89
2022/10/04 05:01:46;;;;;;;22.55;8.35;;;;;;;;;;4962944;28;20503;-88
2022/10/04 05:04:12;;;;;;;27.02;8.23;;;;;;;;;;4963592;28;20037;-89
2022/10/04 05:06:40;;;;;;;22.13;8.77;;;;;;;;;;4964816;28;20133;-88
2022/10/04 05:09:06;;;;;;;21.50;9.57;;;;;;;;;;4961603;28;20116;-88
2022/10/04 05:11:38;;;;;;;21.13;8.85;;;;;;;;;;4970934;28;20363;-89
2022/10/04 05:14:06;;;;;;;44.72;12.20;;;;;;;;;;4952469;28;20479;-89
2022/10/04 05:16:37;;;;;;;25.52;10.52;;;;;;;;;;4958815;28;20060;-90
2022/10/04 05:19:08;;;;;;;25.55;10.00;;;;;;;;;;4960129;28;20246;-88
2022/10/04 05:21:35;;;;;;;25.27;9.32;;;;;;;;;;4964581;28;20649;-89
2022/10/04 05:24:10;;;;;;;28.67;11.13;;;;;;;;;;4963738;28;20122;-89
2022/10/04 05:26:36;;;;;;;25.73;9.38;;;;;;;;;;4965150;28;20031;-88
2022/10/04 05:29:07;;;;;;;26.85;10.23;;;;;;;;;;4957223;28;20483;-90
2022/10/04 05:31:36;;;;;;;24.10;9.73;;;;;;;;;;4964193;28;20574;-89
2022/10/04 05:34:06;;;;;;;25.20;11.45;;;;;;;;;;4963275;28;21198;-89
2022/10/04 05:36:41;;;;;;;31.55;10.80;;;;;;;;;;4977224;28;20140;-88
2022/10/04 05:39:14;;;;;;;34.50;11.25;;;;;;;;;;4962949;28;20396;-89
2022/10/04 05:41:49;;;;;;;29.13;11.15;;;;;;;;;;4967412;28;20113;-89
2022/10/04 05:44:24;;;;;;;27.07;11.17;;;;;;;;;;4967855;28;20034;-88
2022/10/04 05:46:52;;;;;;;31.23;10.80;;;;;;;;;;4966672;28;20026;-88
2022/10/04 05:49:21;;;;;;;26.55;11.60;;;;;;;;;;4948569;28;20041;-89
2022/10/04 05:51:52;;;;;;;24.20;10.82;;;;;;;;;;4986625;28;20038;-89
2022/10/04 05:54:21;;;;;;;25.45;11.45;;;;;;;;;;4967832;28;20106;-88
2022/10/04 05:57:07;;;;;;;25.20;11.88;;;;;;;;;;4965550;28;20078;-88
2022/10/04 05:59:39;;;;;;;25.63;10.93;;;;;;;;;;4965093;28;20446;-89
2022/10/04 06:02:24;;;;;;;25.88;11.57;;;;;;;;;;4966050;28;20398;-89
2022/10/04 06:04:55;;;;;;;32.92;11.60;;;;;;;;;;4967272;28;20612;-89
2022/10/04 06:07:33;;;;;;;29.80;10.90;;;;;;;;;;4961725;28;20082;-89
2022/10/04 06:10:05;;;;;;;30.27;10.80;;;;;;;;;;4962963;28;20037;-89
2022/10/04 06:12:41;;;;;;;26.13;11.98;;;;;;;;;;4985826;28;20382;-89
2022/10/04 06:15:26;;;;;;;41.90;13.23;;;;;;;;;;4960741;28;20102;-89
2022/10/04 06:18:10;;;;;;;37.97;11.63;;;;;;;;;;4962483;28;20031;-88
2022/10/04 06:20:45;;;;;;;24.13;11.23;;;;;;;;;;4976102;28;20395;-89
2022/10/04 06:23:19;;;;;;;25.33;10.50;;;;;;;;;;4963128;28;20070;-89
2022/10/04 06:25:46;;;;;;;30.60;11.98;;;;;;;;;;4977099;28;20022;-89
2022/10/04 06:28:32;;;;;;;23.58;11.48;;;;;;;;;;4980429;28;20474;-89
2022/10/04 06:30:58;;;;;;;;;;;;;;;;;;4964493;28;20334;-88
2022/10/04 06:33:24;;;;;;;19.80;10.50;;;;;;;;;;4972412;28;20270;-88
2022/10/04 06:36:02;;;;;;;29.52;11.38;;;;;;;;;;4964247;28;20030;-89
2022/10/04 06:38:38;;;;;;;23.42;10.95;;;;;;;;;;4973085;28;20031;-89
2022/10/04 06:41:22;;;;;;;31.53;11.63;;;;;;;;;;4972581;28;20085;-88
2022/10/04 06:44:04;;;;;;;26.08;10.15;;;;;;;;;;4973795;28;20766;-89
2022/10/04 06:46:42;;;;;;;32.75;10.63;;;;;;;;;;4966802;28;20035;-89
2022/10/04 06:49:27;;;;;;;24.10;8.00;;;;;;;;;;4966850;28;20278;-89
2022/10/04 06:51:54;;;;;;;18.38;8.98;;;;;;;;;;4967228;28;20054;-88
2022/10/04 06:54:30;;;;;;;17.35;8.20;;;;;;;;;;4965860;28;20112;-89
2022/10/04 06:56:57;;;;;;;15.82;6.68;;;;;;;;;;4968403;28;20394;-89
2022/10/04 06:59:46;;;;;;;21.50;8.25;;;;;;;;;;4967431;28;20026;-89
2022/10/04 07:02:14;;;;;;;24.35;8.23;;;;;;;;;;4967659;28;20513;-89
2022/10/04 07:04:40;;;;;;;21.35;8.98;;;;;;;;;;4984908;28;20034;-89
2022/10/04 07:09:54;;;;;;;26.30;8.30;;;;;;;;;;4984710;28;20065;-89
2022/10/04 07:12:20;;;;;;;20.25;8.13;;;;;;;;;;4964068;28;20061;-89
2022/10/04 07:14:48;;;;;;;23.85;7.53;;;;;;;;;;4968528;28;20038;-89
2022/10/04 07:17:18;;;;;;;26.25;9.02;;;;;;;;;;4962230;28;20121;-88
2022/10/04 07:19:48;;;;;;;15.55;8.02;;;;;;;;;;4976599;28;20084;-88
2022/10/04 07:22:35;;;;;;;19.60;8.68;;;;;;;;;;4964010;28;20065;-88
2022/10/04 07:25:14;;;;;;;21.52;9.02;;;;;;;;;;4972327;28;20065;-89
2022/10/04 07:30:47;;;;;;;21.42;8.10;;;;;;;;;;4977122;28;20049;-89
2022/10/04 07:33:16;;;;;;;22.25;9.07;;;;;;;;;;4981475;28;20050;-89
2022/10/04 07:35:53;;;;;;;16.83;9.02;;;;;;;;;;4967386;28;20426;-89
2022/10/04 07:38:25;;;;;;;15.55;8.90;;;;;;;;;;4970082;28;20040;-89
2022/10/04 07:41:10;;;;;;;18.60;8.05;;;;;;;;;;4981731;28;20054;-89
2022/10/04 07:43:58;;;;;;;20.90;8.07;;;;;;;;;;4964608;28;20023;-89
2022/10/04 07:46:24;;;;;;;18.50;7.00;;;;;;;;;;4962382;28;20076;-89
2022/10/04 07:48:50;;;;;;;14.02;8.13;;;;;;;;;;4970056;28;20038;-88
2022/10/04 07:51:23;;;;;;;16.02;8.70;;;;;;;;;;4968403;28;20034;-89
2022/10/04 07:54:01;;;;;;;21.15;8.40;;;;;;;;;;4969247;28;20077;-89
2022/10/04 07:56:35;;;;;;;24.85;7.78;;;;;;;;;;4967080;28;20038;-88
2022/10/04 07:59:07;;;;;;;20.45;8.82;;;;;;;;;;4964085;28;20042;-89
2022/10/04 08:01:43;;;;;;;22.85;8.38;;;;;;;;;;4961776;28;20063;-90
2022/10/04 08:04:13;;;;;;;21.40;8.23;;;;;;;;;;4982429;28;20023;-89
2022/10/04 08:06:43;;;;;;;23.30;8.90;;;;;;;;;;4966105;28;20039;-89
2022/10/04 08:09:18;;;;;;;18.67;8.23;;;;;;;;;;4966144;28;20486;-88
2022/10/04 08:11:48;;;;;;;18.10;8.77;;;;;;;;;;4968325;28;20030;-88
2022/10/04 08:14:24;;;;;;;15.15;7.72;;;;;;;;;;4964122;28;20030;-89
2022/10/04 08:16:53;;;;;;;19.95;9.38;;;;;;;;;;4985351;28;20038;-89
2022/10/04 08:19:38;;;;;;;18.35;9.65;;;;;;;;;;4977995;28;20042;-89
2022/10/04 08:22:22;;;;;;;22.67;8.73;;;;;;;;;;4981156;28;20031;-89
2022/10/04 08:24:51;;;;;;;19.17;8.02;;;;;;;;;;4966843;28;20110;-88
2022/10/04 08:27:35;;;;;;;22.52;9.20;;;;;;;;;;4966749;28;20026;-89
2022/10/04 08:30:11;;;;;;;21.35;8.65;;;;;;;;;;4979636;28;20042;-89
2022/10/04 08:33:00;;;;;;;15.45;7.50;;;;;;;;;;4964214;28;20030;-89
2022/10/04 08:35:30;;;;;;;14.30;7.38;;;;;;;;;;4981770;28;20054;-89
2022/10/04 08:38:15;;;;;;;17.40;7.93;;;;;;;;;;4967889;28;20030;-89
2022/10/04 08:41:08;;;;;;;18.77;7.70;;;;;;;;;;4965168;28;20680;-90
2022/10/04 08:43:56;;;;;;;18.98;7.68;;;;;;;;;;4965081;28;20491;-89
2022/10/04 08:46:22;;;;;;;20.45;9.70;;;;;;;;;;4966123;28;20029;-89
2022/10/04 08:48:59;;;;;;;10.68;6.88;;;;;;;;;;4967467;28;20497;-89
2022/10/04 08:51:25;;;;;;;11.00;7.22;;;;;;;;;;4964714;28;20121;-89
2022/10/04 08:54:05;;;;;;;16.75;7.00;;;;;;;;;;4965430;28;20120;-89
2022/10/04 08:56:51;;;;;;;13.82;6.90;;;;;;;;;;4978314;28;20038;-89
2022/10/04 08:59:20;;;;;;;13.75;7.78;;;;;;;;;;4978186;28;20069;-90
2022/10/04 09:01:46;;;;;;;11.23;5.53;;;;;;;;;;4964169;28;20063;-88
2022/10/04 09:04:35;;;;;;;14.93;7.05;;;;;;;;;;4974978;28;20026;-89
2022/10/04 09:07:07;;;;;;;15.60;7.38;;;;;;;;;;4984010;28;20049;-88
2022/10/04 09:09:43;;;;;;;18.35;7.53;;;;;;;;;;4979760;28;20026;-89
2022/10/04 09:12:28;;;;;;;20.67;7.82;;;;;;;;;;4966926;28;20120;-89
2022/10/04 09:14:57;;;;;;;11.93;5.65;;;;;;;;;;4968370;28;20030;-89
2022/10/04 09:17:23;;;;;;;11.18;5.28;;;;;;;;;;4960434;28;20132;-90
2022/10/04 09:19:49;;;;;;;12.82;5.95;;;;;;;;;;4980820;28;20066;-89
2022/10/04 09:22:27;;;;;;;20.98;6.65;;;;;;;;;;4965861;28;20494;-89
2022/10/04 09:25:03;;;;;;;12.70;5.65;;;;;;;;;;4979320;28;20023;-89
2022/10/04 09:27:41;;;;;;;10.52;5.35;;;;;;;;;;4979428;28;20433;-89
2022/10/04 09:30:17;;;;;;;20.25;5.57;;;;;;;;;;4965648;28;20042;-89
2022/10/04 09:32:45;;;;;;;;;;;;;;;;;;4964829;28;20585;-89
2022/10/04 09:35:34;;;;;;;9.02;5.72;;;;;;;;;;4965588;28;20251;-89
2022/10/04 09:38:19;;;;;;;15.25;5.32;;;;;;;;;;4977489;28;20058;-88
2022/10/04 09:41:13;;;;;;;8.40;4.03;;;;;;;;;;4966842;28;20322;-88
2022/10/04 09:43:57;;;;;;;10.90;5.35;;;;;;;;;;4980930;28;20031;-89
2022/10/04 09:46:30;;;;;;;10.65;5.40;;;;;;;;;;4963576;28;20128;-88
2022/10/04 09:49:05;;;;;;;9.23;5.13;;;;;;;;;;4961791;28;20062;-89
2022/10/04 09:51:44;;;;;;;13.60;5.75;;;;;;;;;;4960585;28;20065;-89
2022/10/04 09:54:18;;;;;;;17.65;5.65;;;;;;;;;;4968487;28;20133;-89
2022/10/04 09:57:17;;;;;;;13.50;5.82;;;;;;;;;;4985184;28;20034;-89
2022/10/04 09:59:56;;;;;;;13.88;5.95;;;;;;;;;;4953194;28;20073;-89
2022/10/04 10:02:39;;;;;;;8.77;5.85;;;;;;;;;;4980716;28;20282;-89
2022/10/04 10:05:24;;;;;;;11.77;4.35;;;;;;;;;;4964122;28;20045;-89
2022/10/04 10:08:08;;;;;;;8.52;4.72;;;;;;;;;;4966783;28;20034;-89
2022/10/04 10:13:57;;;;;;;9.68;4.55;;;;;;;;;;4982319;28;20025;-90
2022/10/04 10:16:29;;;;;;;9.55;4.30;;;;;;;;;;4985457;28;20034;-89
2022/10/04 10:18:55;;;;;;;7.20;4.32;;;;;;;;;;4963741;28;20037;-88
2022/10/04 10:21:42;;;;;;;7.40;4.40;;;;;;;;;;4970264;28;20026;-90
2022/10/04 10:24:29;;;;;;;7.75;4.50;;;;;;;;;;4959552;28;20054;-88
2022/10/04 10:27:04;;;;;;;10.75;5.28;;;;;;;;;;4971076;28;20038;-88
2022/10/04 10:29:30;;;;;;;;;;;;;;;;;;4981385;28;20034;-89
2022/10/04 10:32:06;;;;;;;11.13;5.50;;;;;;;;;;4972248;28;19914;-89
2022/10/04 10:34:41;;;;;;;9.23;4.50;;;;;;;;;;4966381;28;20042;-89
2022/10/04 10:37:08;;;;;;;;;;;;;;;;;;4970016;28;20066;-89
2022/10/04 10:39:35;;;;;;;8.15;4.30;;;;;;;;;;4965470;28;20305;-88
2022/10/04 10:42:10;;;;;;;10.10;4.43;;;;;;;;;;4971609;28;20069;-89
2022/10/04 10:45:03;;;;;;;7.80;4.53;;;;;;;;;;4967578;28;20037;-89
2022/10/04 10:47:36;;;;;;;9.55;4.03;;;;;;;;;;4952153;28;20034;-88
2022/10/04 10:50:12;;;;;;;6.55;3.17;;;;;;;;;;4983157;28;20082;-89
2022/10/04 10:52:54;;;;;;;8.38;4.28;;;;;;;;;;4982806;28;20125;-89
2022/10/04 10:55:28;;;;;;;4.97;3.50;;;;;;;;;;4956699;28;20023;-88
2022/10/04 10:58:13;;;;;;;8.23;2.95;;;;;;;;;;4982476;28;20022;-88
2022/10/04 11:00:46;;;;;;;8.38;3.92;;;;;;;;;;4981029;28;20113;-89
2022/10/04 11:03:31;;;;;;;6.97;3.45;;;;;;;;;;4971509;28;20576;-89
2022/10/04 11:06:06;;;;;;;11.85;4.20;;;;;;;;;;4968823;28;20094;-88
2022/10/04 11:08:35;;;;;;;7.78;4.25;;;;;;;;;;4968950;28;20121;-89
2022/10/04 11:11:40;;;;;;;9.73;5.10;;;;;;;;;;4958584;28;20093;-89
2022/10/04 11:14:25;;;;;;;7.05;3.80;;;;;;;;;;4909522;29;20130;-89
2022/10/04 11:17:10;;;;;;;10.18;3.05;;;;;;;;;;4926384;29;20071;-90
2022/10/04 11:19:39;;;;;;;6.72;4.05;;;;;;;;;;4951455;28;20378;-88
2022/10/04 11:22:24;;;;;;;12.98;4.25;;;;;;;;;;4967553;28;20474;-90
2022/10/04 11:25:01;;;;;;;8.23;3.38;;;;;;;;;;4969009;28;20053;-90
2022/10/04 11:27:30;;;;;;;5.95;3.40;;;;;;;;;;4966962;28;20049;-89
2022/10/04 11:30:08;;;;;;;9.57;3.75;;;;;;;;;;4962436;28;20142;-90
2022/10/04 11:33:01;;;;;;;6.65;3.00;;;;;;;;;;4965686;28;20065;-89
2022/10/04 11:35:45;;;;;;;10.48;3.45;;;;;;;;;;4940883;28;20051;-89
2022/10/04 11:38:26;;;;;;;6.47;3.53;;;;;;;;;;4983290;28;20421;-89
2022/10/04 11:41:02;;;;;;;5.85;3.28;;;;;;;;;;4964964;28;20058;-89
2022/10/04 11:43:48;;;;;;;9.10;3.67;;;;;;;;;;4963007;28;20099;-89
2022/10/04 11:46:34;;;;;;;8.85;4.28;;;;;;;;;;4967474;28;20030;-89
2022/10/04 11:49:04;;;;;;;7.28;3.30;;;;;;;;;;4965535;28;20058;-89
2022/10/04 11:51:30;;;;;;;6.53;3.53;;;;;;;;;;4962529;28;20590;-89
2022/10/04 11:54:02;;;;;;;6.20;3.70;;;;;;;;;;4964743;28;20482;-89
2022/10/04 11:56:55;;;;;;;7.57;3.10;;;;;;;;;;4965990;28;20263;-89
2022/10/04 11:59:37;;;;;;;9.27;3.22;;;;;;;;;;4955628;28;20577;-89
2022/10/04 12:02:22;;;;;;;11.45;3.25;;;;;;;;;;4968152;28;20037;-89
2022/10/04 12:05:05;;;;;;;7.78;2.83;;;;;;;;;;4963924;28;20505;-89
2022/10/04 12:07:38;;;;;;;6.13;3.30;;;;;;;;;;4976540;28;20105;-89
2022/10/04 12:10:19;;;;;;;9.15;2.88;;;;;;;;;;4980073;28;20474;-89
2022/10/04 12:13:04;;;;;;;10.30;3.45;;;;;;;;;;4974917;28;20081;-89
2022/10/04 12:15:44;;;;;;;12.43;3.47;;;;;;;;;;4962931;28;20034;-89
2022/10/04 12:18:31;;;;;;;11.43;2.85;;;;;;;;;;4966066;28;20577;-89
2022/10/04 12:21:07;;;;;;;9.93;3.80;;;;;;;;;;4963442;28;20022;-89
2022/10/04 12:23:33;;;;;;;;;;;;;;;;;;4961909;28;20750;-88
2022/10/04 12:25:59;;;;;;;6.22;2.95;;;;;;;;;;4979397;28;19924;-89
2022/10/04 12:28:44;;;;;;;14.63;4.05;;;;;;;;;;4977065;28;20054;-90
2022/10/04 12:31:15;;;;;;;6.97;3.67;;;;;;;;;;4965644;28;20116;-89
2022/10/04 12:33:59;;;;;;;6.53;3.40;;;;;;;;;;4966377;28;20038;-90
2022/10/04 12:36:44;;;;;;;7.57;3.30;;;;;;;;;;4984260;28;20037;-89
2022/10/04 12:39:26;;;;;;;6.25;3.53;;;;;;;;;;4981403;28;20026;-89
2022/10/04 12:42:25;;;;;;;8.43;2.72;;;;;;;;;;4960943;28;20043;-90
2022/10/04 12:45:12;;;;;;;7.32;3.42;;;;;;;;;;4962227;28;20022;-90
2022/10/04 12:47:50;;;;;;;12.40;3.58;;;;;;;;;;4965854;28;20037;-89
2022/10/04 12:50:29;;;;;;;7.57;3.72;;;;;;;;;;4982982;28;20515;-90
2022/10/04 12:53:05;;;;;;;6.85;3.63;;;;;;;;;;4963906;28;20042;-89
2022/10/04 12:55:48;;;;;;;10.32;3.33;;;;;;;;;;4977706;28;20400;-89
2022/10/04 12:58:17;;;;;;;15.27;4.05;;;;;;;;;;4963419;28;20117;-89
2022/10/04 13:00:45;;;;;;;9.20;3.63;;;;;;;;;;4962171;28;20061;-89
2022/10/04 13:03:29;;;;;;;13.35;4.20;;;;;;;;;;4977353;28;20490;-89
2022/10/04 13:05:55;;;;;;;7.57;4.25;;;;;;;;;;4979611;28;20427;-89
2022/10/04 13:08:37;;;;;;;8.73;3.97;;;;;;;;;;4967857;28;20133;-89
2022/10/04 13:11:09;;;;;;;18.00;5.18;;;;;;;;;;4964281;28;20066;-89
2022/10/04 13:13:42;;;;;;;12.43;4.53;;;;;;;;;;4982584;28;20108;-89
2022/10/04 13:16:08;;;;;;;10.45;4.85;;;;;;;;;;4966374;28;20027;-89
2022/10/04 13:18:42;;;;;;;7.65;3.95;;;;;;;;;;4960004;28;20031;-89
2022/10/04 13:21:19;;;;;;;9.75;4.43;;;;;;;;;;4962753;28;20109;-89
2022/10/04 13:24:04;;;;;;;11.98;5.05;;;;;;;;;;4962486;28;20030;-89
2022/10/04 13:26:43;;;;;;;10.40;4.15;;;;;;;;;;4983567;28;20057;-89
2022/10/04 13:29:27;;;;;;;11.52;5.05;;;;;;;;;;4965366;28;20037;-89
2022/10/04 13:31:53;;;;;;;9.57;4.72;;;;;;;;;;4964951;28;20026;-88
2022/10/04 13:34:25;;;;;;;14.10;6.13;;;;;;;;;;4965979;28;20548;-89
2022/10/04 13:36:54;;;;;;;8.50;4.75;;;;;;;;;;4957545;28;20558;-89
2022/10/04 13:39:27;;;;;;;11.80;4.80;;;;;;;;;;4966040;28;20031;-89
2022/10/04 13:42:14;;;;;;;11.07;6.28;;;;;;;;;;4964936;28;20073;-90
2022/10/04 13:44:46;;;;;;;16.98;4.88;;;;;;;;;;4982909;28;20109;-89
2022/10/04 13:47:18;;;;;;;14.48;5.60;;;;;;;;;;4973461;28;20022;-89
2022/10/04 13:49:53;;;;;;;12.23;6.07;;;;;;;;;;4983405;28;20073;-89
2022/10/04 13:58:19;;;;;;;8.15;4.95;;;;;;;;;;4982485;28;20108;-89
2022/10/04 14:01:04;;;;;;;19.10;5.78;;;;;;;;;;4966664;28;20046;-89
2022/10/04 14:03:45;;;;;;;8.85;4.75;;;;;;;;;;4976899;28;20034;-89
2022/10/04 14:06:20;;;;;;;10.23;5.22;;;;;;;;;;4975196;28;20019;-89
2022/10/04 14:09:06;;;;;;;13.07;5.45;;;;;;;;;;4976930;28;20096;-89
2022/10/04 14:11:51;;;;;;;11.48;5.70;;;;;;;;;;4962600;28;20045;-89
2022/10/04 14:14:18;;;;;;;7.18;4.03;;;;;;;;;;4972434;28;20030;-90
2022/10/04 14:16:46;;;;;;;7.72;5.15;;;;;;;;;;4986548;28;20038;-90
2022/10/04 14:19:16;;;;;;;12.07;5.30;;;;;;;;;;4968833;28;20030;-89
2022/10/04 14:21:53;;;;;;;11.30;5.30;;;;;;;;;;4983240;28;20080;-89
2022/10/04 14:24:19;;;;;;;14.63;5.03;;;;;;;;;;4966368;28;20080;-89
2022/10/04 14:26:49;;;;;;;13.52;4.65;;;;;;;;;;4968117;28;20202;-90
2022/10/04 14:29:34;;;;;;;10.98;3.97;;;;;;;;;;4967261;28;20235;-89
2022/10/04 14:32:00;;;;;;;7.18;3.88;;;;;;;;;;4979443;28;20545;-89
2022/10/04 14:34:46;;;;;;;7.30;3.80;;;;;;;;;;4962112;28;20149;-89
2022/10/04 14:37:27;;;;;;;8.13;3.05;;;;;;;;;;4977906;28;20030;-89
2022/10/04 14:39:53;;;;;;;5.68;3.50;;;;;;;;;;4962959;28;20490;-89
2022/10/04 14:42:43;;;;;;;10.82;3.15;;;;;;;;;;4968456;28;20046;-89
2022/10/04 14:45:28;;;;;;;7.82;3.28;;;;;;;;;;4942970;28;20042;-89
2022/10/04 14:48:13;;;;;;;7.18;3.05;;;;;;;;;;4986503;28;20120;-89
2022/10/04 14:50:48;;;;;;;11.82;3.17;;;;;;;;;;4965230;28;20034;-89
2022/10/04 14:53:20;;;;;;;9.30;3.05;;;;;;;;;;4966084;28;20030;-89
2022/10/04 14:55:59;;;;;;;4.72;3.00;;;;;;;;;;4962558;28;20094;-89
2022/10/04 14:58:37;;;;;;;7.90;3.65;;;;;;;;;;4977883;28;20085;-89
2022/10/04 15:01:06;;;;;;;5.85;3.40;;;;;;;;;;4958778;28;20574;-89
2022/10/04 15:03:41;;;;;;;9.23;4.03;;;;;;;;;;4964680;28;20747;-89
2022/10/04 15:06:12;;;;;;;7.97;3.40;;;;;;;;;;4964013;28;20438;-89
2022/10/04 15:08:51;;;;;;;8.63;3.22;;;;;;;;;;4979280;28;20154;-90
2022/10/04 15:11:18;;;;;;;13.35;3.60;;;;;;;;;;4965942;28;20042;-89
2022/10/04 15:13:55;;;;;;;7.57;3.30;;;;;;;;;;4961351;28;20026;-89
2022/10/04 15:16:29;;;;;;;6.65;3.10;;;;;;;;;;4967006;28;20038;-89
2022/10/04 15:18:59;;;;;;;8.80;3.35;;;;;;;;;;4963476;28;20486;-89
2022/10/04 15:21:29;;;;;;;14.00;3.10;;;;;;;;;;4964632;28;20481;-89
2022/10/04 15:23:58;;;;;;;8.00;2.85;;;;;;;;;;4978901;28;20034;-89
2022/10/04 15:26:31;;;;;;;7.40;3.10;;;;;;;;;;4967105;28;20308;-90
2022/10/04 15:28:58;;;;;;;6.70;2.85;;;;;;;;;;4980078;28;20027;-89
2022/10/04 15:31:54;;;;;;;8.68;2.67;;;;;;;;;;4963855;28;20030;-89
2022/10/04 15:34:33;;;;;;;7.97;3.28;;;;;;;;;;4962458;28;20046;-89